Time;durP1;ratioP1;P1;durP2;ratioP2;P2;SDS_P1;SDS_P2;PMS_P1;PMS_P2;Temp;Humidity;BMP_temperature;BMP_pressure;BME280_temperature;BME280_humidity;BME280_pressure;Samples;Min_cycle;Max_cycle;Signal;HPM_P1;HPM_P2
2023/10/07 00:00:52;;;;;;;5.45;3.00;;;6.50;91.60;;;;;;2077978;28;20226;-71
2023/10/07 00:01:53;;;;;;;7.10;3.53;;;6.50;91.80;;;;;;2077709;28;20710;-71
2023/10/07 00:02:59;;;;;;;8.50;3.40;;;6.50;91.90;;;;;;2079065;28;20695;-71
2023/10/07 00:04:00;;;;;;;6.97;3.40;;;6.40;92.30;;;;;;2080505;28;20240;-71
2023/10/07 00:05:01;;;;;;;6.50;3.17;;;6.40;92.30;;;;;;2079721;28;20590;-72
2023/10/07 00:06:02;;;;;;;4.93;3.30;;;6.40;92.30;;;;;;2080541;28;20200;-71
2023/10/07 00:07:04;;;;;;;6.63;3.63;;;6.40;92.40;;;;;;2078748;28;20197;-71
2023/10/07 00:08:12;;;;;;;5.55;3.30;;;6.40;92.90;;;;;;2078455;28;20262;-71
2023/10/07 00:09:15;;;;;;;6.13;3.28;;;6.40;92.30;;;;;;2077918;28;20186;-71
2023/10/07 00:10:25;;;;;;;6.88;3.22;;;6.40;92.10;;;;;;2071164;28;20684;-71
2023/10/07 00:11:27;;;;;;;5.25;3.25;;;6.40;91.90;;;;;;2073818;28;20702;-72
2023/10/07 00:12:28;;;;;;;6.63;3.15;;;6.30;92.30;;;;;;2073565;28;20225;-72
2023/10/07 00:13:31;;;;;;;6.37;3.63;;;6.30;92.60;;;;;;2080260;28;20278;-71
2023/10/07 00:14:33;;;;;;;4.80;3.15;;;6.30;92.80;;;;;;2075317;28;20339;-71
2023/10/07 00:15:34;;;;;;;7.05;3.45;;;6.30;92.90;;;;;;2078181;28;20228;-71
2023/10/07 00:16:36;;;;;;;7.55;3.58;;;6.30;92.90;;;;;;2078531;28;20326;-71
2023/10/07 00:17:42;;;;;;;5.25;3.17;;;6.30;92.90;;;;;;2078728;28;20224;-71
2023/10/07 00:18:45;;;;;;;8.43;3.70;;;6.20;92.80;;;;;;2064457;28;20222;-71
2023/10/07 00:19:47;;;;;;;5.38;3.22;;;6.30;92.70;;;;;;2071042;28;20327;-71
2023/10/07 00:20:54;;;;;;;5.95;3.08;;;6.30;92.80;;;;;;2071989;28;20733;-71
2023/10/07 00:21:59;;;;;;;7.38;3.10;;;6.20;92.80;;;;;;2064572;28;20232;-71
2023/10/07 00:23:01;;;;;;;6.22;3.70;;;6.30;92.90;;;;;;2065077;28;20226;-73
2023/10/07 00:24:05;;;;;;;7.18;3.22;;;6.20;93.00;;;;;;2071067;28;20232;-71
2023/10/07 00:25:07;;;;;;;5.82;3.45;;;6.20;92.90;;;;;;2079841;28;20675;-72
2023/10/07 00:26:09;;;;;;;6.10;3.28;;;6.20;92.80;;;;;;2077770;28;20185;-72
2023/10/07 00:27:26;;;;;;;6.78;3.10;;;6.20;92.80;;;;;;2069315;28;20190;-71
2023/10/07 00:28:35;;;;;;;5.50;3.10;;;6.20;92.80;;;;;;2080208;28;20282;-71
2023/10/07 00:29:54;;;;;;;6.18;3.40;;;6.20;92.80;;;;;;2076714;28;20260;-71
2023/10/07 00:31:02;;;;;;;8.35;3.47;;;6.10;92.90;;;;;;2079821;28;20227;-71
2023/10/07 00:32:05;;;;;;;5.60;2.97;;;6.00;93.10;;;;;;2077182;28;20224;-71
2023/10/07 00:33:09;;;;;;;7.10;3.20;;;6.10;93.40;;;;;;2078801;28;20208;-71
2023/10/07 00:34:16;;;;;;;5.40;2.95;;;6.10;93.40;;;;;;2078792;28;20194;-71
2023/10/07 00:35:20;;;;;;;5.97;3.17;;;6.00;93.40;;;;;;2073275;28;20198;-71
2023/10/07 00:36:42;;;;;;;5.35;3.08;;;6.10;93.60;;;;;;2072119;28;22151;-71
2023/10/07 00:37:44;;;;;;;5.90;3.33;;;6.10;93.50;;;;;;2072522;28;20248;-71
2023/10/07 00:38:45;;;;;;;4.07;2.70;;;6.10;93.60;;;;;;2080444;28;20546;-71
2023/10/07 00:39:47;;;;;;;6.25;3.40;;;6.10;94.00;;;;;;2079989;28;20240;-71
2023/10/07 00:40:56;;;;;;;5.55;3.20;;;6.00;94.20;;;;;;2076568;28;20233;-71
2023/10/07 00:41:58;;;;;;;5.95;3.45;;;6.00;94.20;;;;;;2078941;28;20258;-71
2023/10/07 00:42:59;;;;;;;5.53;3.40;;;6.00;94.00;;;;;;2079102;28;20228;-73
2023/10/07 00:44:16;;;;;;;5.63;3.30;;;6.00;93.40;;;;;;2077414;28;20233;-72
2023/10/07 00:45:17;;;;;;;6.43;3.25;;;6.00;93.40;;;;;;2075666;28;20224;-71
2023/10/07 00:46:28;;;;;;;5.50;3.30;;;6.00;93.70;;;;;;2079656;28;20660;-71
2023/10/07 00:47:29;;;;;;;5.32;3.10;;;6.10;93.40;;;;;;2079354;28;20706;-71
2023/10/07 00:48:42;;;;;;;6.23;3.07;;;6.10;93.30;;;;;;2072788;28;20233;-72
2023/10/07 00:50:48;;;;;;;6.53;3.50;;;6.10;93.20;;;;;;2073451;28;20233;-71
2023/10/07 00:51:52;;;;;;;6.22;3.35;;;6.10;93.40;;;;;;2078371;28;20632;-71
2023/10/07 00:54:07;;;;;;;6.25;3.20;;;6.00;93.60;;;;;;2077849;28;20718;-71
2023/10/07 00:55:18;;;;;;;6.43;3.42;;;6.00;93.90;;;;;;2079967;28;20231;-71
2023/10/07 00:56:23;;;;;;;6.00;2.90;;;6.00;93.90;;;;;;2071334;28;20196;-71
2023/10/07 00:57:29;;;;;;;6.13;3.53;;;6.00;93.70;;;;;;2067484;28;20245;-71
2023/10/07 00:58:35;;;;;;;5.43;3.00;;;6.00;93.80;;;;;;2081315;28;20290;-71
2023/10/07 00:59:40;;;;;;;4.45;3.10;;;6.00;93.80;;;;;;2079953;28;20704;-71
2023/10/07 01:00:47;;;;;;;5.88;2.95;;;6.00;93.70;;;;;;2072483;28;20310;-71
2023/10/07 01:01:50;;;;;;;6.38;3.20;;;6.00;93.70;;;;;;2072804;28;20237;-71
2023/10/07 01:02:51;;;;;;;5.78;2.80;;;5.90;93.70;;;;;;2072388;28;20241;-72
2023/10/07 01:03:55;;;;;;;5.78;3.05;;;5.90;93.80;;;;;;2071358;28;20360;-72
2023/10/07 01:05:09;;;;;;;4.57;2.92;;;5.90;94.20;;;;;;2071340;28;20250;-71
2023/10/07 01:06:10;;;;;;;5.00;2.53;;;5.90;94.50;;;;;;2064290;28;20225;-71
2023/10/07 01:07:18;;;;;;;5.90;2.90;;;5.90;94.20;;;;;;2056053;28;20206;-71
2023/10/07 01:08:20;;;;;;;5.38;2.63;;;5.90;94.20;;;;;;2065058;28;20660;-71
2023/10/07 01:09:22;;;;;;;4.40;2.88;;;5.90;94.20;;;;;;2075599;28;20235;-71
2023/10/07 01:10:27;;;;;;;4.95;2.83;;;5.90;94.30;;;;;;2077408;28;20231;-72
2023/10/07 01:11:31;;;;;;;5.32;3.10;;;5.90;94.20;;;;;;2069264;28;20232;-71
2023/10/07 01:12:38;;;;;;;4.65;2.95;;;5.90;94.30;;;;;;2076128;28;20225;-71
2023/10/07 01:13:45;;;;;;;6.07;3.45;;;5.90;94.60;;;;;;2076002;28;20235;-71
2023/10/07 01:14:47;;;;;;;5.95;3.50;;;5.90;94.80;;;;;;2078145;28;20276;-71
2023/10/07 01:15:48;;;;;;;5.97;3.25;;;5.80;95.00;;;;;;2079560;28;20223;-71
2023/10/07 01:16:50;;;;;;;6.47;3.17;;;5.80;94.80;;;;;;2078917;28;20231;-71
2023/10/07 01:17:54;;;;;;;6.10;2.90;;;5.80;94.70;;;;;;2077136;28;20217;-71
2023/10/07 01:19:29;;;;;;;4.72;2.72;;;5.80;94.50;;;;;;2077657;28;20642;-71
2023/10/07 01:20:33;;;;;;;4.88;2.67;;;5.80;94.40;;;;;;2076670;28;20306;-71
2023/10/07 01:21:39;;;;;;;8.60;3.17;;;5.80;94.50;;;;;;2070856;28;20224;-71
2023/10/07 01:23:03;;;;;;;5.15;2.85;;;5.80;94.60;;;;;;2064792;28;20237;-71
2023/10/07 01:24:06;;;;;;;5.60;3.10;;;5.80;94.60;;;;;;2075207;28;20229;-72
2023/10/07 01:25:09;;;;;;;5.72;3.00;;;5.80;94.80;;;;;;2071375;28;20227;-71
2023/10/07 01:26:20;;;;;;;5.18;3.10;;;5.80;94.90;;;;;;2079335;28;20597;-71
2023/10/07 01:27:28;;;;;;;8.18;3.33;;;5.80;94.90;;;;;;2075384;28;20244;-71
2023/10/07 01:28:32;;;;;;;5.47;3.30;;;5.80;94.80;;;;;;2074648;28;20224;-72
2023/10/07 01:29:34;;;;;;;5.90;3.10;;;5.80;94.70;;;;;;2072578;28;20217;-71
2023/10/07 01:30:35;;;;;;;5.43;2.53;;;5.80;94.80;;;;;;2079561;28;20231;-71
2023/10/07 01:31:40;;;;;;;7.50;3.13;;;5.80;94.70;;;;;;2071011;28;20248;-71
2023/10/07 01:34:08;;;;;;;5.53;3.25;;;5.80;94.70;;;;;;2063580;28;20220;-71
2023/10/07 01:35:13;;;;;;;5.93;2.90;;;5.80;94.90;;;;;;2061070;28;20603;-72
2023/10/07 01:36:23;;;;;;;4.90;2.92;;;5.80;94.80;;;;;;2058966;28;20664;-71
2023/10/07 01:37:28;;;;;;;4.25;2.72;;;5.80;94.70;;;;;;2072191;28;20263;-71
2023/10/07 01:38:32;;;;;;;5.35;2.97;;;5.80;94.50;;;;;;2076868;28;20297;-71
2023/10/07 01:39:40;;;;;;;5.75;3.13;;;5.80;94.20;;;;;;2063952;28;20317;-71
2023/10/07 01:40:54;;;;;;;6.28;3.28;;;5.70;94.40;;;;;;2062777;28;20249;-71
2023/10/07 01:42:01;;;;;;;5.05;3.00;;;5.70;94.30;;;;;;2077295;28;20246;-71
2023/10/07 01:43:02;;;;;;;5.65;2.92;;;5.60;94.50;;;;;;2072272;28;20707;-72
2023/10/07 01:44:08;;;;;;;5.13;2.75;;;5.60;94.50;;;;;;2069163;28;20575;-71
2023/10/07 01:45:11;;;;;;;5.57;2.75;;;5.60;94.30;;;;;;2056240;28;20225;-71
2023/10/07 01:46:11;;;;;;;5.28;2.85;;;5.60;94.00;;;;;;2071421;28;20570;-72
2023/10/07 01:47:25;;;;;;;5.10;3.07;;;5.70;93.70;;;;;;2074240;28;20188;-71
2023/10/07 01:48:27;;;;;;;5.25;2.67;;;5.70;93.60;;;;;;2078890;28;20246;-71
2023/10/07 01:49:30;;;;;;;5.03;2.80;;;5.70;93.50;;;;;;2078006;28;20232;-71
2023/10/07 01:50:44;;;;;;;4.97;2.78;;;5.70;93.50;;;;;;2066511;28;20242;-71
2023/10/07 01:51:44;;;;;;;4.93;2.70;;;5.80;93.70;;;;;;2071177;28;20224;-72
2023/10/07 01:52:55;;;;;;;5.73;3.00;;;5.70;93.40;;;;;;2068972;28;20231;-71
2023/10/07 01:54:03;;;;;;;4.93;2.70;;;5.70;93.40;;;;;;2062022;28;20226;-71
2023/10/07 01:55:09;;;;;;;5.65;3.00;;;5.70;93.60;;;;;;2065492;28;20212;-71
2023/10/07 01:56:14;;;;;;;5.57;2.70;;;5.70;93.70;;;;;;2079579;28;20192;-71
2023/10/07 01:57:15;;;;;;;5.55;2.78;;;5.60;94.20;;;;;;2074541;28;20218;-71
2023/10/07 01:58:19;;;;;;;4.10;2.70;;;5.60;94.40;;;;;;2070865;28;20197;-71
2023/10/07 01:59:21;;;;;;;6.03;2.97;;;5.60;94.50;;;;;;2070599;28;20228;-71
2023/10/07 02:00:44;;;;;;;4.43;2.83;;;5.70;94.60;;;;;;2077821;28;20231;-71
2023/10/07 02:02:06;;;;;;;4.95;2.60;;;5.70;94.50;;;;;;2077893;28;20223;-71
2023/10/07 02:03:13;;;;;;;5.72;2.92;;;5.70;94.70;;;;;;2076249;28;20221;-72
2023/10/07 02:04:26;;;;;;;4.68;2.72;;;5.60;94.80;;;;;;2077830;28;20181;-71
2023/10/07 02:05:39;;;;;;;4.50;2.78;;;5.70;94.80;;;;;;2079848;28;20217;-71
2023/10/07 02:06:50;;;;;;;5.88;2.72;;;5.60;94.30;;;;;;2077059;28;20298;-71
2023/10/07 02:07:53;;;;;;;5.93;2.88;;;5.60;94.00;;;;;;2072133;28;20222;-71
2023/10/07 02:08:54;;;;;;;4.95;2.90;;;5.60;94.30;;;;;;2069475;28;20232;-71
2023/10/07 02:09:57;;;;;;;4.80;2.70;;;5.50;94.40;;;;;;2062940;28;20758;-71
2023/10/07 02:10:58;;;;;;;6.30;2.53;;;5.60;94.30;;;;;;2069571;28;20615;-71
2023/10/07 02:12:01;;;;;;;4.32;2.50;;;5.60;94.10;;;;;;2076654;28;20642;-71
2023/10/07 02:13:01;;;;;;;5.90;2.80;;;5.60;93.80;;;;;;2072938;28;20232;-73
2023/10/07 02:14:02;;;;;;;4.70;2.70;;;5.70;93.60;;;;;;2070979;28;20200;-72
2023/10/07 02:15:10;;;;;;;4.70;2.70;;;5.70;93.50;;;;;;2070818;28;20667;-72
2023/10/07 02:16:11;;;;;;;6.18;2.97;;;5.70;93.80;;;;;;2063385;28;20533;-71
2023/10/07 02:17:12;;;;;;;6.70;2.73;;;5.70;93.90;;;;;;2063134;28;20293;-71
2023/10/07 02:18:16;;;;;;;6.30;2.75;;;5.60;93.70;;;;;;2062064;28;20432;-71
2023/10/07 02:19:27;;;;;;;4.85;2.88;;;5.60;93.60;;;;;;2068989;28;20184;-71
2023/10/07 02:20:36;;;;;;;4.88;2.95;;;5.60;93.50;;;;;;2070902;28;20242;-71
2023/10/07 02:21:36;;;;;;;5.68;2.90;;;5.60;93.40;;;;;;2072072;28;20352;-71
2023/10/07 02:22:38;;;;;;;6.20;2.97;;;5.60;93.50;;;;;;2075412;28;20224;-71
2023/10/07 02:23:43;;;;;;;5.10;2.70;;;5.50;93.80;;;;;;2074979;28;20225;-71
2023/10/07 02:24:44;;;;;;;6.10;3.22;;;5.50;94.10;;;;;;2077950;28;20350;-71
2023/10/07 02:25:49;;;;;;;6.65;2.75;;;5.40;94.50;;;;;;2078451;28;20235;-71
2023/10/07 02:26:54;;;;;;;6.07;2.85;;;5.40;95.00;;;;;;2070492;28;20228;-71
2023/10/07 02:27:55;;;;;;;5.22;2.78;;;5.40;95.10;;;;;;2077117;28;20232;-71
2023/10/07 02:29:04;;;;;;;5.07;2.72;;;5.50;95.10;;;;;;2077838;28;20215;-71
2023/10/07 02:30:06;;;;;;;5.30;2.47;;;5.50;95.50;;;;;;2074493;28;20217;-71
2023/10/07 02:31:15;;;;;;;4.75;2.60;;;5.50;95.00;;;;;;2077365;28;20189;-72
2023/10/07 02:32:17;;;;;;;5.07;2.67;;;5.50;94.90;;;;;;2075065;28;20184;-71
2023/10/07 02:33:21;;;;;;;5.30;2.55;;;5.50;94.70;;;;;;2078599;28;20184;-72
2023/10/07 02:34:28;;;;;;;6.13;2.72;;;5.50;94.70;;;;;;2078299;28;20231;-71
2023/10/07 02:35:31;;;;;;;7.07;2.67;;;5.50;94.80;;;;;;2078873;28;20219;-71
2023/10/07 02:36:31;;;;;;;6.85;2.75;;;5.50;95.00;;;;;;2068766;28;20793;-72
2023/10/07 02:37:38;;;;;;;3.43;2.43;;;5.50;95.30;;;;;;2076482;28;20322;-71
2023/10/07 02:38:43;;;;;;;5.18;3.22;;;5.50;95.30;;;;;;2077013;28;20226;-71
2023/10/07 02:39:47;;;;;;;4.75;2.70;;;5.50;95.20;;;;;;2078910;28;20216;-71
2023/10/07 02:40:50;;;;;;;5.75;3.05;;;5.50;95.20;;;;;;2070620;28;20217;-71
2023/10/07 02:41:52;;;;;;;4.40;2.60;;;5.50;95.10;;;;;;2070391;28;20382;-71
2023/10/07 02:42:54;;;;;;;5.32;2.83;;;5.50;95.20;;;;;;2069579;28;20253;-72
2023/10/07 02:43:55;;;;;;;4.88;2.80;;;5.50;95.30;;;;;;2078656;28;20365;-71
2023/10/07 02:45:39;;;;;;;5.87;2.60;;;5.50;95.10;;;;;;2076943;28;20219;-71
2023/10/07 02:46:32;;;;;;;5.30;2.35;;;5.50;94.90;;;;;;2069565;28;20227;-71
2023/10/07 02:47:33;;;;;;;5.18;2.85;;;5.40;94.40;;;;;;2072598;28;20733;-71
2023/10/07 02:48:38;;;;;;;5.40;2.70;;;5.40;94.60;;;;;;2075608;28;20226;-71
2023/10/07 02:49:39;;;;;;;5.40;2.78;;;5.40;94.40;;;;;;2075655;28;20227;-71
2023/10/07 02:50:42;;;;;;;4.53;2.83;;;5.40;94.40;;;;;;2078745;28;20230;-71
2023/10/07 02:51:47;;;;;;;4.78;2.70;;;5.40;94.30;;;;;;2078245;28;20461;-71
2023/10/07 02:52:49;;;;;;;4.55;2.45;;;5.40;94.10;;;;;;2070532;28;20240;-71
2023/10/07 02:53:58;;;;;;;5.75;2.70;;;5.40;94.20;;;;;;2077539;28;20235;-71
2023/10/07 02:56:18;;;;;;;5.50;2.70;;;5.40;93.70;;;;;;2073668;28;20242;-71
2023/10/07 02:57:39;;;;;;;4.10;2.43;;;5.40;93.70;;;;;;2075409;28;20252;-71
2023/10/07 02:58:49;;;;;;;3.97;2.45;;;5.40;93.90;;;;;;2064939;28;20250;-72
2023/10/07 03:00:00;;;;;;;4.40;2.70;;;5.40;93.90;;;;;;2077029;28;20247;-71
2023/10/07 03:01:13;;;;;;;4.38;2.42;;;5.40;94.00;;;;;;2069735;28;20328;-72
2023/10/07 03:03:32;;;;;;;4.38;2.40;;;5.40;93.90;;;;;;2064246;28;20650;-71
2023/10/07 03:04:36;;;;;;;4.32;2.78;;;5.40;94.10;;;;;;2075718;28;20565;-71
2023/10/07 03:05:44;;;;;;;5.20;2.60;;;5.40;94.00;;;;;;2068286;28;20663;-71
2023/10/07 03:06:46;;;;;;;4.65;2.50;;;5.50;94.10;;;;;;2071741;28;20220;-71
2023/10/07 03:07:50;;;;;;;3.60;2.60;;;5.50;94.10;;;;;;2070413;28;20223;-71
2023/10/07 03:08:59;;;;;;;5.05;2.80;;;5.40;94.30;;;;;;2061250;28;20268;-71
2023/10/07 03:10:28;;;;;;;4.88;2.50;;;5.40;94.50;;;;;;2063389;28;20239;-71
2023/10/07 03:11:40;;;;;;;4.47;2.80;;;5.50;95.30;;;;;;2069750;28;20571;-71
2023/10/07 03:12:47;;;;;;;5.72;2.97;;;5.40;94.90;;;;;;2075521;28;20259;-71
2023/10/07 03:13:50;;;;;;;4.30;2.97;;;5.40;94.90;;;;;;2071019;28;20303;-71
2023/10/07 03:14:51;;;;;;;7.45;3.10;;;5.50;94.90;;;;;;2067148;28;20264;-71
2023/10/07 03:17:17;;;;;;;4.72;2.72;;;5.30;95.00;;;;;;2074956;28;20488;-72
2023/10/07 03:18:22;;;;;;;6.03;2.90;;;5.20;95.60;;;;;;2077615;28;20633;-71
2023/10/07 03:19:30;;;;;;;4.50;2.63;;;5.20;96.20;;;;;;2070705;28;20714;-71
2023/10/07 03:20:31;;;;;;;6.68;2.65;;;5.20;96.90;;;;;;2062168;28;20319;-71
2023/10/07 03:23:10;;;;;;;5.82;2.95;;;5.20;97.20;;;;;;2077020;28;20714;-71
2023/10/07 03:24:06;;;;;;;3.88;2.58;;;5.20;97.10;;;;;;2074507;28;20205;-72
2023/10/07 03:25:08;;;;;;;6.45;2.72;;;5.20;97.10;;;;;;2070561;28;20636;-72
2023/10/07 03:26:09;;;;;;;4.93;2.78;;;5.20;96.90;;;;;;2071273;28;20192;-71
2023/10/07 03:27:22;;;;;;;4.93;3.03;;;5.30;96.90;;;;;;2069305;28;20610;-71
2023/10/07 03:28:35;;;;;;;4.47;2.72;;;5.20;97.30;;;;;;2070763;28;20670;-72
2023/10/07 03:29:37;;;;;;;7.13;3.13;;;5.10;98.40;;;;;;2075346;28;20645;-71
2023/10/07 03:30:37;;;;;;;5.80;2.75;;;5.00;98.80;;;;;;2075966;28;20217;-70
2023/10/07 03:32:56;;;;;;;4.63;2.63;;;5.00;98.40;;;;;;2075449;28;20234;-70
2023/10/07 03:33:58;;;;;;;6.20;3.00;;;5.00;98.30;;;;;;2077888;28;20231;-71
2023/10/07 03:34:59;;;;;;;4.90;2.95;;;5.00;98.30;;;;;;2077786;28;20297;-71
2023/10/07 03:38:10;;;;;;;4.28;2.75;;;5.10;98.00;;;;;;2071549;28;20197;-71
2023/10/07 03:40:25;;;;;;;5.10;3.05;;;5.20;97.70;;;;;;2076389;28;20646;-70
2023/10/07 03:41:26;;;;;;;6.55;2.80;;;5.20;97.60;;;;;;2080537;28;20266;-71
2023/10/07 03:42:27;;;;;;;6.50;3.20;;;5.20;97.50;;;;;;2072352;28;20212;-71
2023/10/07 03:43:27;;;;;;;4.10;2.67;;;5.20;97.20;;;;;;2077214;28;20223;-71
2023/10/07 03:44:31;;;;;;;5.23;2.87;;;5.20;97.20;;;;;;2061915;28;20268;-71
2023/10/07 03:45:32;;;;;;;4.65;2.67;;;5.20;97.30;;;;;;2061902;28;20244;-71
2023/10/07 03:46:34;;;;;;;7.20;2.97;;;5.20;97.30;;;;;;2067049;28;20606;-71
2023/10/07 03:47:37;;;;;;;3.83;2.45;;;5.20;97.50;;;;;;2060533;28;20237;-71
2023/10/07 03:48:39;;;;;;;5.05;2.90;;;5.20;97.60;;;;;;2067257;28;20216;-71
2023/10/07 03:49:40;;;;;;;6.88;3.25;;;5.20;97.70;;;;;;2077773;28;20246;-71
2023/10/07 03:50:41;;;;;;;5.13;3.17;;;5.20;97.80;;;;;;2069574;28;20224;-71
2023/10/07 03:51:45;;;;;;;5.00;2.77;;;5.20;97.70;;;;;;2077772;28;20595;-71
2023/10/07 03:52:50;;;;;;;6.38;3.40;;;5.20;97.80;;;;;;2077561;28;20385;-71
2023/10/07 03:53:55;;;;;;;6.50;3.10;;;5.20;97.50;;;;;;2078086;28;20307;-71
2023/10/07 03:55:04;;;;;;;5.25;2.65;;;5.30;97.50;;;;;;2075899;28;20230;-72
2023/10/07 03:56:07;;;;;;;4.93;2.85;;;5.20;97.50;;;;;;2077217;28;20654;-71
2023/10/07 03:57:09;;;;;;;6.32;3.38;;;5.30;97.40;;;;;;2069269;28;20701;-72
2023/10/07 03:58:19;;;;;;;5.20;3.00;;;5.40;97.30;;;;;;2069895;28;20219;-71
2023/10/07 03:59:20;;;;;;;4.97;3.20;;;5.30;97.20;;;;;;2071817;28;20301;-71
2023/10/07 04:00:20;;;;;;;5.60;3.10;;;5.40;97.10;;;;;;2076904;28;20472;-71
2023/10/07 04:01:26;;;;;;;5.30;3.10;;;5.40;96.90;;;;;;2079988;28;20369;-71
2023/10/07 04:02:34;;;;;;;6.25;2.92;;;5.40;96.90;;;;;;2077925;28;20248;-71
2023/10/07 04:03:37;;;;;;;4.78;2.83;;;5.40;96.80;;;;;;2071883;28;20721;-71
2023/10/07 04:04:41;;;;;;;5.13;3.10;;;5.40;97.10;;;;;;2075375;28;20232;-70
2023/10/07 04:05:49;;;;;;;4.97;2.83;;;5.40;96.90;;;;;;2076573;28;20215;-71
2023/10/07 04:06:50;;;;;;;6.40;2.95;;;5.40;96.80;;;;;;2062166;28;20339;-71
2023/10/07 04:07:51;;;;;;;5.53;3.05;;;5.40;96.90;;;;;;2060227;28;20214;-70
2023/10/07 04:08:53;;;;;;;5.90;3.00;;;5.40;96.90;;;;;;2064180;28;20228;-71
2023/10/07 04:09:54;;;;;;;5.68;3.15;;;5.30;97.10;;;;;;2062280;28;20297;-71
2023/10/07 04:10:54;;;;;;;8.02;2.83;;;5.40;97.40;;;;;;2062617;28;20225;-71
2023/10/07 04:11:55;;;;;;;6.43;3.30;;;5.30;97.60;;;;;;2070223;28;20684;-71
2023/10/07 04:12:56;;;;;;;5.07;2.40;;;5.30;97.90;;;;;;2074286;28;20220;-71
2023/10/07 04:13:57;;;;;;;5.03;2.83;;;5.30;98.00;;;;;;2077685;28;20622;-70
2023/10/07 04:15:02;;;;;;;5.30;3.10;;;5.30;98.00;;;;;;2078260;28;20219;-71
2023/10/07 04:16:14;;;;;;;5.32;2.90;;;5.20;97.80;;;;;;2077668;28;20219;-71
2023/10/07 04:17:15;;;;;;;5.70;3.10;;;5.30;97.90;;;;;;2072053;28;20749;-71
2023/10/07 04:18:17;;;;;;;5.67;2.90;;;5.20;97.60;;;;;;2065996;28;20243;-71
2023/10/07 04:20:22;;;;;;;5.00;2.92;;;5.30;97.80;;;;;;2070167;28;20801;-71
2023/10/07 04:21:24;;;;;;;4.60;3.03;;;5.30;97.70;;;;;;2074068;28;20232;-72
2023/10/07 04:22:25;;;;;;;5.28;2.67;;;5.30;97.60;;;;;;2073522;28;20436;-70
2023/10/07 04:23:26;;;;;;;4.17;2.73;;;5.30;97.70;;;;;;2072959;28;20239;-71
2023/10/07 04:24:28;;;;;;;5.27;2.90;;;5.30;97.70;;;;;;2072568;28;20247;-71
2023/10/07 04:25:31;;;;;;;5.22;2.78;;;5.30;97.80;;;;;;2076354;28;20220;-70
2023/10/07 04:26:33;;;;;;;6.60;2.90;;;5.40;97.70;;;;;;2067853;28;20267;-71
2023/10/07 04:27:41;;;;;;;4.95;2.88;;;5.30;97.80;;;;;;2070657;28;20615;-71
2023/10/07 04:28:42;;;;;;;6.28;3.17;;;5.30;97.60;;;;;;2075138;28;20225;-71
2023/10/07 04:29:43;;;;;;;4.17;2.33;;;5.30;97.90;;;;;;2071886;28;20219;-70
2023/10/07 04:30:53;;;;;;;5.40;2.83;;;5.30;98.00;;;;;;2068495;28;20288;-70
2023/10/07 04:31:54;;;;;;;4.85;2.65;;;5.20;98.00;;;;;;2076574;28;20224;-71
2023/10/07 04:33:00;;;;;;;5.75;2.80;;;5.20;98.20;;;;;;2076953;28;20281;-70
2023/10/07 04:34:03;;;;;;;4.38;2.75;;;5.20;98.30;;;;;;2074140;28;20299;-71
2023/10/07 04:35:16;;;;;;;4.22;2.38;;;5.20;98.50;;;;;;2078001;28;20264;-71
2023/10/07 04:36:54;;;;;;;4.10;2.60;;;5.10;99.00;;;;;;2075834;28;20266;-70
2023/10/07 04:37:55;;;;;;;6.25;2.83;;;5.00;99.30;;;;;;2078335;28;20239;-70
2023/10/07 04:38:57;;;;;;;6.30;3.27;;;4.90;99.10;;;;;;2078888;28;20298;-70
2023/10/07 04:42:35;;;;;;;5.75;2.72;;;4.80;98.90;;;;;;2076672;28;20219;-71
2023/10/07 04:43:37;;;;;;;4.38;2.78;;;4.90;99.50;;;;;;2079473;28;20237;-70
2023/10/07 04:45:53;;;;;;;6.47;3.25;;;4.70;99.80;;;;;;2073586;28;20240;-71
2023/10/07 04:46:56;;;;;;;5.40;3.17;;;4.70;99.80;;;;;;2079945;28;20221;-70
2023/10/07 04:47:57;;;;;;;5.50;3.33;;;4.80;99.70;;;;;;2072142;28;20319;-71
2023/10/07 04:49:12;;;;;;;8.97;3.50;;;4.70;99.60;;;;;;2071683;28;20314;-71
2023/10/07 04:51:23;;;;;;;5.45;2.90;;;4.80;99.60;;;;;;2080457;28;20368;-70
2023/10/07 04:52:26;;;;;;;4.85;3.08;;;4.90;99.70;;;;;;2074874;28;20251;-71
2023/10/07 04:53:27;;;;;;;4.35;3.00;;;4.90;99.50;;;;;;2074398;28;20314;-71
2023/10/07 04:54:35;;;;;;;6.60;2.80;;;5.00;99.30;;;;;;2078873;28;20219;-71
2023/10/07 04:55:39;;;;;;;4.60;2.90;;;5.00;99.20;;;;;;2079505;28;20654;-71
2023/10/07 04:56:40;;;;;;;5.10;2.90;;;5.10;99.60;;;;;;2071264;28;20232;-71
2023/10/07 04:57:44;;;;;;;4.90;3.00;;;5.00;99.50;;;;;;2072189;28;20646;-71
2023/10/07 04:58:45;;;;;;;5.90;3.00;;;4.90;99.80;;;;;;2076663;28;20303;-71
2023/10/07 04:59:46;;;;;;;5.13;2.83;;;4.90;99.90;;;;;;2078074;28;20273;-71
2023/10/07 05:00:47;;;;;;;3.97;2.80;;;5.00;99.90;;;;;;2068255;28;20227;-71
2023/10/07 05:01:56;;;;;;;5.03;2.60;;;5.00;99.70;;;;;;2071930;28;20760;-71
2023/10/07 05:03:14;;;;;;;3.95;2.70;;;5.00;99.40;;;;;;2071774;28;20270;-71
2023/10/07 05:04:15;;;;;;;5.15;2.88;;;5.10;99.40;;;;;;2076195;28;20606;-70
2023/10/07 05:05:16;;;;;;;4.55;2.70;;;5.10;99.30;;;;;;2070259;28;20196;-72
2023/10/07 05:06:18;;;;;;;3.43;2.27;;;5.10;98.90;;;;;;2071432;28;20186;-70
2023/10/07 05:07:24;;;;;;;3.30;2.50;;;5.00;98.90;;;;;;2075627;28;20604;-71
2023/10/07 05:08:27;;;;;;;5.22;2.47;;;5.10;98.70;;;;;;2069127;28;20741;-71
2023/10/07 05:09:28;;;;;;;3.75;2.30;;;5.20;98.00;;;;;;2068481;28;20232;-72
2023/10/07 05:10:29;;;;;;;4.13;2.30;;;5.20;97.30;;;;;;2060149;28;20294;-70
2023/10/07 05:11:30;;;;;;;4.80;2.47;;;5.30;97.40;;;;;;2063201;28;20747;-70
2023/10/07 05:12:31;;;;;;;4.80;2.67;;;5.40;97.10;;;;;;2079192;28;20252;-71
2023/10/07 05:13:35;;;;;;;5.97;3.00;;;5.40;97.10;;;;;;2070213;28;20287;-71
2023/10/07 05:14:36;;;;;;;4.60;2.40;;;5.40;97.40;;;;;;2062930;28;20616;-70
2023/10/07 05:15:41;;;;;;;4.73;2.57;;;5.30;97.20;;;;;;2067639;28;20225;-71
2023/10/07 05:16:46;;;;;;;5.47;3.30;;;5.30;97.60;;;;;;2070804;28;20772;-70
2023/10/07 05:17:47;;;;;;;4.82;3.00;;;5.30;97.70;;;;;;2072219;28;20233;-70
2023/10/07 05:18:48;;;;;;;4.27;2.80;;;5.30;97.70;;;;;;2078992;28;20710;-70
2023/10/07 05:19:49;;;;;;;5.10;2.75;;;5.30;97.40;;;;;;2077763;28;20213;-70
2023/10/07 05:20:51;;;;;;;4.63;2.40;;;5.40;95.60;;;;;;2080038;28;20235;-70
2023/10/07 05:22:00;;;;;;;4.45;2.50;;;5.40;95.90;;;;;;2079663;28;20230;-70
2023/10/07 05:23:03;;;;;;;4.13;2.20;;;5.30;96.60;;;;;;2070521;28;20225;-71
2023/10/07 05:24:09;;;;;;;5.03;2.70;;;5.50;93.80;;;;;;2072754;28;20189;-71
2023/10/07 05:25:10;;;;;;;7.55;2.30;;;5.60;95.20;;;;;;2079724;28;20185;-71
2023/10/07 05:26:17;;;;;;;3.30;2.20;;;5.60;95.60;;;;;;2079781;28;20579;-70
2023/10/07 05:27:18;;;;;;;3.90;2.50;;;5.60;96.20;;;;;;2076347;28;20181;-70
2023/10/07 05:28:21;;;;;;;4.32;2.83;;;5.50;96.40;;;;;;2077515;28;20205;-71
2023/10/07 05:29:22;;;;;;;6.05;3.40;;;5.40;96.80;;;;;;2071725;28;20747;-70
2023/10/07 05:30:24;;;;;;;5.82;3.65;;;5.30;97.20;;;;;;2071625;28;20235;-70
2023/10/07 05:31:24;;;;;;;4.95;3.72;;;5.20;97.70;;;;;;2079313;28;21618;-70
2023/10/07 05:32:25;;;;;;;5.50;3.50;;;5.00;97.90;;;;;;2078418;28;20587;-71
2023/10/07 05:33:28;;;;;;;7.07;3.38;;;4.90;98.20;;;;;;2078495;28;20220;-70
2023/10/07 05:34:29;;;;;;;5.22;3.25;;;4.90;98.40;;;;;;2078479;28;20229;-70
2023/10/07 05:35:29;;;;;;;6.00;2.80;;;4.90;98.20;;;;;;2071302;28;20844;-70
2023/10/07 05:36:31;;;;;;;4.55;3.00;;;4.90;98.10;;;;;;2071810;28;20257;-70
2023/10/07 05:37:32;;;;;;;5.60;3.40;;;5.00;98.00;;;;;;2077115;28;20233;-70
2023/10/07 05:38:35;;;;;;;4.77;3.77;;;5.00;98.00;;;;;;2070481;28;20794;-70
2023/10/07 05:39:36;;;;;;;5.72;3.45;;;5.00;97.90;;;;;;2067980;28;20232;-70
2023/10/07 05:40:37;;;;;;;3.83;2.83;;;5.00;97.80;;;;;;2076787;28;20231;-69
2023/10/07 05:41:40;;;;;;;4.77;2.87;;;5.00;97.80;;;;;;2078895;28;20251;-69
2023/10/07 05:42:42;;;;;;;4.90;3.40;;;5.10;97.70;;;;;;2078711;28;20702;-69
2023/10/07 05:43:44;;;;;;;4.18;2.78;;;5.20;97.40;;;;;;2079509;28;20216;-69
2023/10/07 05:44:45;;;;;;;5.07;3.33;;;5.30;97.40;;;;;;2079568;28;20247;-69
2023/10/07 05:45:46;;;;;;;4.90;3.00;;;5.30;97.20;;;;;;2077237;28;20717;-69
2023/10/07 05:46:47;;;;;;;4.80;3.47;;;5.30;97.10;;;;;;2077414;28;20299;-70
2023/10/07 05:47:50;;;;;;;5.68;3.58;;;5.20;97.20;;;;;;2080338;28;20595;-69
2023/10/07 05:48:51;;;;;;;4.70;3.33;;;5.20;97.40;;;;;;2079346;28;20721;-69
2023/10/07 05:49:55;;;;;;;4.67;3.13;;;5.20;97.40;;;;;;2078909;28;20306;-69
2023/10/07 05:50:57;;;;;;;4.78;2.92;;;5.20;97.50;;;;;;2078459;28;20233;-69
2023/10/07 05:51:59;;;;;;;4.63;3.13;;;5.20;97.90;;;;;;2077325;28;20224;-69
2023/10/07 05:53:04;;;;;;;5.10;3.33;;;5.20;98.00;;;;;;2077069;28;20240;-69
2023/10/07 05:54:05;;;;;;;4.78;2.90;;;5.20;97.90;;;;;;2069453;28;20279;-70
2023/10/07 05:55:09;;;;;;;4.90;2.93;;;5.20;98.00;;;;;;2063676;28;20178;-70
2023/10/07 05:56:10;;;;;;;4.57;3.25;;;5.20;97.80;;;;;;2079763;28;20267;-69
2023/10/07 05:57:11;;;;;;;4.87;2.80;;;5.20;97.60;;;;;;2079345;28;20212;-69
2023/10/07 05:58:12;;;;;;;4.10;2.60;;;5.10;97.70;;;;;;2078815;28;20407;-70
2023/10/07 05:59:14;;;;;;;5.30;2.83;;;5.10;97.80;;;;;;2078041;28;20272;-69
2023/10/07 06:00:17;;;;;;;4.57;2.72;;;5.20;97.40;;;;;;2069838;28;20186;-69
2023/10/07 06:01:18;;;;;;;6.72;3.05;;;5.30;97.20;;;;;;2069182;28;20695;-69